ブエノスアイレス/エセイサ の空港の天気 - METARとTAF

エセイサ国際空港 ( SAEZ / EZE ) - アルゼンチン ブエノスアイレス州、Ezeiza
飛行場実況気象(Metar)
観測時間01/22 00:00 ART (01/22 03:00 UTC)
風向・風速東北東 5m/s
視程10km以上
天気現象
なし
気温25℃
湿度74%
気圧1019hPa
METARSAEZ 220300Z 07009KT CAVOK 25/20 Q1019 NOSIG
過去の天気等 Google飛行場航空写真 Wunderground天気予報

過去48時間のMETAR

飛行場予報(TAF)
発表時間: 1/21 20:00 ART (1/21 23:00 UTC)
予報対象時間: 21日21時 ART ~ 22日21時 ART
風向・風速東 5m/s
視程10km以上
なし
22日2時 ART ~ 22日4時 ART に徐々に
風向・風速北東 5m/s
22日15時 ART ~ 22日18時 ART に徐々に
風向・風速東 8m/s
TAF SAEZ 212300Z 2200/2224 09010KT CAVOK TX33/2219Z TN20/2208Z
BECMG 2205/2207 05010KT
BECMG 2218/2221 09015KT